createdAt,value
2022-10-13T00:00:47.992Z,0.138040006
2022-10-13T00:01:52.025Z,0.097440004
2022-10-13T00:02:46.197Z,0.073080003
2022-10-13T00:03:51.685Z,0.105560005
2022-10-13T00:05:48.188Z,0.089320004
2022-10-13T00:06:52.624Z,0.113680005
2022-10-13T00:07:46.996Z,0.073080003
2022-10-13T00:08:51.857Z,0.073080003
2022-10-13T00:10:46.944Z,0.146160007
2022-10-13T00:11:45.325Z,0.105560005
2022-10-13T00:12:53.277Z,0.032480001
2022-10-13T00:13:54.509Z,0.024360001
2022-10-13T00:16:18.030Z,0.081200004
2022-10-13T00:17:17.177Z,0.105560005
2022-10-13T00:18:22.936Z,0.024360001
2022-10-13T00:19:21.118Z,0.016240001
2022-10-13T00:20:20.448Z,0.040600002
2022-10-13T00:21:21.971Z,0.097440004
2022-10-13T00:22:21.028Z,0.00812
2022-10-13T00:23:21.367Z,0.016240001
2022-10-13T00:24:16.403Z,0.024360001
2022-10-13T00:25:17.571Z,0.089320004
2022-10-13T00:26:13.939Z,0.105560005
2022-10-13T00:27:15.323Z,0.056840003
2022-10-13T00:28:15.546Z,0.040600002
2022-10-13T00:29:07.528Z,0.064960003
2022-10-13T00:31:05.595Z,0.097440004
2022-10-13T00:32:09.649Z,0.089320004
2022-10-13T00:33:11.445Z,0.064960003
2022-10-13T00:34:04.015Z,0.105560005
2022-10-13T00:35:59.103Z,0.00812
2022-10-13T00:36:58.381Z,0.048720002
2022-10-13T00:37:55.365Z,0.178640008
2022-10-13T00:38:52.895Z,0.113680005
2022-10-13T00:39:52.611Z,0.129920006
2022-10-13T00:40:50.619Z,0.097440004
2022-10-13T00:41:52.734Z,0.105560005
2022-10-13T00:42:46.914Z,0.056840003
2022-10-13T00:43:49.062Z,0.032480001
2022-10-13T00:45:44.938Z,0.121800005
2022-10-13T00:46:48.754Z,0.073080003
2022-10-13T00:47:50.364Z,0.064960003
2022-10-13T00:51:28.748Z,0.073080003
2022-10-13T00:52:29.827Z,0.129920006
2022-10-13T00:53:27.195Z,0.040600002
2022-10-13T00:54:28.678Z,0.146160007
2022-10-13T00:56:27.074Z,0.170520008
2022-10-13T00:57:34.198Z,0.032480001
2022-10-13T00:58:35.243Z,0.089320004
2022-10-13T00:59:32.981Z,0.097440004
2022-10-13T01:01:34.130Z,0.097440004
2022-10-13T01:02:36.267Z,0.105560005
2022-10-13T01:03:32.591Z,0.105560005
2022-10-13T01:04:36.882Z,0.146160007
2022-10-13T01:05:31.174Z,0.146160007
2022-10-13T01:06:38.524Z,0.040600002
2022-10-13T01:07:36.349Z,0.138040006
2022-10-13T01:08:37.358Z,0.105560005
2022-10-13T01:09:35.296Z,0.105560005
2022-10-13T01:10:41.685Z,0.081200004
2022-10-13T01:11:37.075Z,0.154280007
2022-10-13T01:12:40.560Z,0.097440004
2022-10-13T01:13:35.100Z,0.105560005
2022-10-13T01:14:40.549Z,0.138040006
2022-10-13T01:16:41.008Z,0.064960003
2022-10-13T01:17:37.757Z,0.138040006
2022-10-13T01:18:40.979Z,0.064960003
2022-10-13T01:19:45.148Z,0.089320004
2022-10-13T01:20:39.050Z,0.097440004
2022-10-13T01:21:40.543Z,0.154280007
2022-10-13T01:22:37.548Z,0.073080003
2022-10-13T01:23:41.964Z,0.129920006
2022-10-13T01:24:35.845Z,0.081200004
2022-10-13T01:26:39.172Z,0.056840003
2022-10-13T01:27:49.087Z,0.064960003
2022-10-13T01:29:58.263Z,0.056840003
2022-10-13T01:30:55.716Z,0.048720002
2022-10-13T01:32:01.639Z,0.113680005
2022-10-13T01:32:58.051Z,0.146160007
2022-10-13T01:33:59.999Z,0.081200004
2022-10-13T01:34:57.990Z,0.056840003
2022-10-13T01:36:06.357Z,0.121800005
2022-10-13T01:37:01.499Z,0.056840003
2022-10-13T01:38:07.263Z,0.097440004
2022-10-13T01:39:10.413Z,0.040600002
2022-10-13T01:41:10.864Z,0.081200004
2022-10-13T01:42:12.235Z,0.040600002
2022-10-13T01:43:09.899Z,0.032480001
2022-10-13T01:44:13.009Z,0.040600002
2022-10-13T01:45:10.554Z,0.186760008
2022-10-13T01:46:10.480Z,0.178640008
2022-10-13T01:47:08.393Z,0.097440004
2022-10-13T01:48:08.202Z,0.056840003
2022-10-13T01:49:03.407Z,0.105560005
2022-10-13T01:50:03.995Z,0.138040006
2022-10-13T01:51:05.935Z,0.056840003
2022-10-13T01:52:12.752Z,0.056840003
2022-10-13T01:53:15.563Z,0.073080003
2022-10-13T01:54:17.836Z,0.081200004
2022-10-13T01:55:22.931Z,0.032480001
2022-10-13T01:56:19.126Z,0.154280007
2022-10-13T01:57:21.758Z,0.089320004
2022-10-13T01:58:16.687Z,0.097440004
2022-10-13T01:59:18.953Z,0.089320004
2022-10-13T02:01:15.804Z,0.105560005
2022-10-13T02:02:15.920Z,0.089320004
2022-10-13T02:03:10.591Z,0.081200004
2022-10-13T02:05:17.578Z,0.105560005
2022-10-13T02:06:16.748Z,0.162400007
2022-10-13T02:07:16.276Z,0.048720002
2022-10-13T02:08:15.762Z,0.089320004
2022-10-13T02:09:15.052Z,0.056840003
2022-10-13T02:10:15.488Z,0.040600002
2022-10-13T02:11:16.115Z,0.154280007
2022-10-13T02:12:11.874Z,0.138040006
2022-10-13T02:13:12.116Z,0.129920006
2022-10-13T02:14:07.442Z,0.048720002
2022-10-13T02:15:08.564Z,0.138040006
2022-10-13T02:16:05.398Z,0.097440004
2022-10-13T02:17:09.742Z,0.073080003
2022-10-13T02:18:09.146Z,0.081200004
2022-10-13T02:19:08.580Z,0.089320004
2022-10-13T02:20:10.579Z,0.113680005
2022-10-13T02:21:18.781Z,0.089320004
2022-10-13T02:22:16.348Z,0.073080003
2022-10-13T02:23:31.410Z,0.081200004
2022-10-13T02:24:27.183Z,0.081200004
2022-10-13T02:25:34.163Z,0.113680005
2022-10-13T02:26:32.947Z,0.056840003
2022-10-13T02:27:32.313Z,0.089320004
2022-10-13T02:28:30.519Z,0.089320004
2022-10-13T02:29:27.156Z,0.073080003
2022-10-13T02:31:23.986Z,0.138040006
2022-10-13T02:32:32.361Z,0.081200004
2022-10-13T02:33:30.620Z,0.105560005
2022-10-13T02:34:33.932Z,0.113680005
2022-10-13T02:35:34.920Z,0.048720002
2022-10-13T02:36:33.205Z,0.097440004
2022-10-13T02:37:32.446Z,0.129920006
2022-10-13T02:38:31.040Z,0.105560005
2022-10-13T02:40:18.219Z,-0.089320004
2022-10-13T02:41:05.827Z,0.081200004
2022-10-13T02:42:03.857Z,0.089320004
2022-10-13T02:43:02.101Z,0.056840003
2022-10-13T02:44:01.581Z,0.00812
2022-10-13T02:46:00.626Z,0.040600002
2022-10-13T02:46:56.373Z,0.081200004
2022-10-13T02:47:58.962Z,0.105560005
2022-10-13T02:48:53.265Z,0.089320004
2022-10-13T02:50:52.854Z,0.081200004
2022-10-13T02:51:54.619Z,0.178640008
2022-10-13T02:52:49.029Z,0.056840003
2022-10-13T02:53:52.504Z,0.089320004
2022-10-13T02:54:48.376Z,0.081200004
2022-10-13T02:56:00.383Z,0.024360001
2022-10-13T02:56:56.313Z,0.162400007
2022-10-13T02:57:51.161Z,0.073080003
2022-10-13T02:58:57.237Z,0.064960003
2022-10-13T02:59:52.497Z,0.064960003
2022-10-13T03:00:55.094Z,0.024360001
2022-10-13T03:01:54.787Z,0.048720002
2022-10-13T03:02:49.516Z,0.170520008
2022-10-13T03:03:53.512Z,0.048720002
2022-10-13T03:04:47.931Z,0.056840003
2022-10-13T03:05:50.103Z,0.089320004
2022-10-13T03:06:53.110Z,0.064960003
2022-10-13T03:07:48.334Z,0.121800005
2022-10-13T03:08:57.693Z,0.024360001
2022-10-13T03:10:50.326Z,0.097440004
2022-10-13T03:11:49.807Z,0.097440004
2022-10-13T03:12:44.087Z,0.064960003
2022-10-13T03:13:43.380Z,0.032480001
2022-10-13T03:14:38.925Z,0.097440004
2022-10-13T03:15:40.493Z,0.064960003
2022-10-13T03:16:37.901Z,0.073080003
2022-10-13T03:17:39.120Z,0.056840003
2022-10-13T03:20:04.594Z,0.121800005
2022-10-13T03:21:05.157Z,0.081200004
2022-10-13T03:22:05.722Z,0.032480001
2022-10-13T03:23:01.402Z,0.097440004
2022-10-13T03:24:01.497Z,0.081200004
2022-10-13T03:25:59.918Z,0.129920006
2022-10-13T03:26:58.041Z,0.056840003
2022-10-13T03:27:56.994Z,0.121800005
2022-10-13T03:28:52.701Z,0.170520008
2022-10-13T03:30:49.060Z,0.089320004
2022-10-13T03:31:50.276Z,0.170520008
2022-10-13T03:32:48.354Z,0.064960003
2022-10-13T03:33:50.169Z,0.064960003
2022-10-13T03:35:44.141Z,0.081200004
2022-10-13T03:36:44.278Z,0.129920006
2022-10-13T03:37:43.886Z,0.105560005
2022-10-13T03:38:38.382Z,0.129920006
2022-10-13T03:39:37.913Z,0.056840003
2022-10-13T03:40:33.199Z,0.121800005
2022-10-13T03:41:34.247Z,0.162400007
2022-10-13T03:42:29.891Z,0.073080003
2022-10-13T03:43:37.485Z,0.113680005
2022-10-13T03:44:29.681Z,0.048720002
2022-10-13T03:45:32.248Z,0.081200004
2022-10-13T03:46:25.818Z,0.146160007
2022-10-13T03:47:30.163Z,0.081200004
2022-10-13T03:48:23.003Z,0.032480001
2022-10-13T03:49:23.988Z,0
2022-10-13T03:51:24.609Z,0.097440004
2022-10-13T03:52:23.614Z,0.024360001
2022-10-13T03:53:25.587Z,0.048720002
2022-10-13T03:54:23.662Z,0.089320004
2022-10-13T03:55:27.441Z,0.073080003
2022-10-13T03:56:22.028Z,0.129920006
2022-10-13T03:57:22.123Z,0.138040006
2022-10-13T03:58:17.379Z,0.105560005
2022-10-13T03:59:17.121Z,0.146160007
2022-10-13T04:00:12.710Z,0.081200004
2022-10-13T04:01:13.045Z,0.097440004
2022-10-13T04:02:11.962Z,0.073080003
2022-10-13T04:03:06.478Z,0.089320004
2022-10-13T04:04:10.129Z,0.121800005
2022-10-13T04:06:14.697Z,0.121800005
2022-10-13T04:07:15.078Z,0.040600002
2022-10-13T04:08:10.360Z,0.089320004
2022-10-13T04:09:10.788Z,0.064960003
2022-10-13T04:11:08.501Z,0.105560005
2022-10-13T04:12:09.075Z,0.073080003
2022-10-13T04:13:07.170Z,0.064960003
2022-10-13T04:14:06.803Z,0.097440004
2022-10-13T04:16:02.708Z,0.089320004
2022-10-13T04:16:58.380Z,0.105560005
2022-10-13T04:18:02.038Z,0.073080003
2022-10-13T04:18:57.028Z,0.121800005
2022-10-13T04:20:02.518Z,0.113680005
2022-10-13T04:21:03.192Z,0.105560005
2022-10-13T04:22:11.188Z,0.048720002
2022-10-13T04:23:09.607Z,0.032480001
2022-10-13T04:24:09.620Z,0.129920006
2022-10-13T04:26:12.952Z,0.073080003
2022-10-13T04:27:08.231Z,0.105560005
2022-10-13T04:28:08.666Z,0.121800005
2022-10-13T04:29:05.307Z,0.097440004
2022-10-13T04:31:06.839Z,0.154280007
2022-10-13T04:32:23.366Z,0.105560005
2022-10-13T04:33:20.940Z,0.032480001
2022-10-13T04:34:24.787Z,0.073080003
2022-10-13T04:35:21.165Z,0.00812
2022-10-13T04:36:23.187Z,0.040600002
2022-10-13T04:37:19.875Z,0.040600002
2022-10-13T04:38:26.635Z,0.129920006
2022-10-13T04:39:21.831Z,0.064960003
2022-10-13T04:41:30.940Z,0.146160007
2022-10-13T04:44:10.215Z,0.089320004
2022-10-13T04:46:13.003Z,0.105560005
2022-10-13T04:47:13.739Z,0.048720002
2022-10-13T04:48:10.494Z,0.089320004
2022-10-13T04:49:09.240Z,0.089320004
2022-10-13T04:51:07.769Z,0.138040006
2022-10-13T04:52:08.982Z,0.154280007
2022-10-13T04:53:09.043Z,0.105560005
2022-10-13T04:54:10.056Z,0.121800005
2022-10-13T04:56:16.417Z,0.097440004
2022-10-13T04:57:15.738Z,0.032480001
2022-10-13T04:58:23.740Z,0.048720002
2022-10-13T04:59:27.839Z,0.089320004
2022-10-13T05:01:29.255Z,0.129920006
2022-10-13T05:02:30.489Z,0.081200004
2022-10-13T05:03:30.990Z,0.105560005
2022-10-13T05:04:29.082Z,0.089320004
2022-10-13T05:05:31.298Z,0.129920006
2022-10-13T05:06:28.690Z,0.073080003
2022-10-13T05:07:32.665Z,0.113680005
2022-10-13T05:09:36.970Z,0.162400007
2022-10-13T05:10:37.258Z,0.073080003
2022-10-13T05:11:37.606Z,0.024360001
2022-10-13T05:12:32.753Z,0.040600002
2022-10-13T05:13:33.741Z,0.129920006
2022-10-13T05:14:30.192Z,0.138040006
2022-10-13T05:15:30.308Z,0.089320004
2022-10-13T05:16:38.384Z,0.073080003
2022-10-13T05:17:39.541Z,0.089320004
2022-10-13T05:18:39.430Z,0
2022-10-13T05:20:39.890Z,0.121800005
2022-10-13T05:21:38.473Z,0.097440004
2022-10-13T05:22:39.988Z,0.056840003
2022-10-13T05:23:34.815Z,0.056840003
2022-10-13T05:24:38.524Z,0.016240001
2022-10-13T05:25:33.976Z,0.105560005
2022-10-13T05:26:35.320Z,0.064960003
2022-10-13T05:27:30.768Z,0.089320004
2022-10-13T05:28:34.100Z,0.113680005
2022-10-13T05:29:27.087Z,0.146160007
2022-10-13T05:30:29.297Z,0.081200004
2022-10-13T05:31:29.481Z,0.129920006
2022-10-13T05:32:24.647Z,0.073080003
2022-10-13T05:33:26.495Z,0.129920006
2022-10-13T05:34:28.100Z,0.170520008
2022-10-13T05:36:32.807Z,0.064960003
2022-10-13T05:37:28.054Z,0.113680005
2022-10-13T05:38:26.153Z,0.113680005
2022-10-13T05:39:24.852Z,0.121800005
2022-10-13T05:40:24.341Z,0.032480001
2022-10-13T05:41:28.061Z,0.089320004
2022-10-13T05:42:23.832Z,0.073080003
2022-10-13T05:43:21.323Z,0.105560005
2022-10-13T05:44:19.543Z,0.113680005
2022-10-13T05:46:51.980Z,0.024360001
2022-10-13T05:47:49.967Z,0.113680005
2022-10-13T05:48:52.341Z,0.154280007
2022-10-13T05:50:53.227Z,0.081200004
2022-10-13T05:51:51.709Z,0.146160007
2022-10-13T05:52:47.152Z,0.211120009
2022-10-13T05:53:54.094Z,0.121800005
2022-10-13T05:53:57.823Z,0.121800005
2022-10-13T05:55:45.224Z,0.113680005
2022-10-13T05:56:44.741Z,0.129920006
2022-10-13T05:57:39.425Z,0.129920006
2022-10-13T05:58:42.008Z,0.073080003
2022-10-13T05:59:38.692Z,0.056840003
2022-10-13T06:01:34.319Z,0.032480001
2022-10-13T06:02:37.097Z,0.097440004
2022-10-13T06:03:29.648Z,0.154280007
2022-10-13T06:04:32.921Z,0.146160007
2022-10-13T06:05:27.223Z,0.097440004
2022-10-13T06:06:30.497Z,0.056840003
2022-10-13T06:06:31.745Z,0.056840003
2022-10-13T06:07:26.311Z,0.162400007
2022-10-13T06:08:18.859Z,0.121800005
2022-10-13T06:09:24.544Z,0.154280007
2022-10-13T06:11:25.347Z,0.186760008
2022-10-13T06:12:19.953Z,0.178640008
2022-10-13T06:13:22.300Z,0.113680005
2022-10-13T06:14:16.223Z,0.146160007
2022-10-13T06:16:11.515Z,0.194880009
2022-10-13T06:17:10.777Z,0.138040006
2022-10-13T06:18:12.031Z,0.089320004
2022-10-13T06:19:07.782Z,0.194880009
2022-10-13T06:20:11.841Z,0.178640008
2022-10-13T06:21:04.238Z,0.129920006
2022-10-13T06:22:04.752Z,0.113680005
2022-10-13T06:22:59.746Z,0.113680005
2022-10-13T06:26:28.641Z,0.211120009
2022-10-13T06:27:25.515Z,0.235480011
2022-10-13T06:28:24.438Z,0.170520008
2022-10-13T06:29:19.125Z,0.22736001
2022-10-13T06:30:25.801Z,0.105560005
2022-10-13T06:31:22.227Z,0.194880009
2022-10-13T06:32:32.158Z,0.162400007
2022-10-13T06:33:28.825Z,0.22736001
2022-10-13T06:34:25.598Z,0.316680014
2022-10-13T06:35:28.338Z,0.211120009
2022-10-13T06:36:20.264Z,0.341040015
2022-10-13T06:37:23.341Z,0.251720011
2022-10-13T06:37:27.349Z,0.251720011
2022-10-13T06:38:24.729Z,0.235480011
2022-10-13T06:39:19.862Z,0.138040006
2022-10-13T06:40:21.088Z,0.194880009
2022-10-13T06:41:19.506Z,0.178640008
2022-10-13T06:42:19.991Z,0.259840012
2022-10-13T06:43:14.150Z,0.349160016
2022-10-13T06:44:14.006Z,0.300440013
2022-10-13T06:46:13.107Z,0.259840012
2022-10-13T06:47:06.623Z,0.259840012
2022-10-13T06:48:08.717Z,0.365400016
2022-10-13T06:49:03.835Z,0.243600011
2022-10-13T06:50:03.301Z,0.300440013
2022-10-13T06:50:58.480Z,0.324800014
2022-10-13T06:52:07.136Z,0.397880018
2022-10-13T06:52:59.673Z,0.267960012
2022-10-13T06:54:01.555Z,0.332920015
2022-10-13T06:55:02.973Z,0.406000018
2022-10-13T06:56:03.464Z,0.284200013
2022-10-13T06:58:26.450Z,0.316680014
2022-10-13T06:59:23.652Z,0.414120018
2022-10-13T07:01:18.322Z,0.519680023
2022-10-13T07:02:22.396Z,0.43848002
2022-10-13T07:03:16.830Z,0.430360019
2022-10-13T07:04:17.610Z,0.495320022
2022-10-13T07:05:11.971Z,0.66584003
2022-10-13T07:06:09.396Z,0.43848002
2022-10-13T07:07:12.902Z,0.470960021
2022-10-13T07:08:04.994Z,0.633360028
2022-10-13T07:09:07.443Z,0.397880018
2022-10-13T07:11:02.812Z,0.544040024
2022-10-13T07:11:55.644Z,0.657720029
2022-10-13T07:12:57.763Z,0.755160034
2022-10-13T07:13:50.875Z,0.617120028
2022-10-13T07:14:56.629Z,0.44660002
2022-10-13T07:15:48.984Z,0.844480038
2022-10-13T07:16:48.479Z,0.722680032
2022-10-13T07:17:43.982Z,0.852600038
2022-10-13T07:18:42.780Z,0.950040042
2022-10-13T07:19:40.934Z,0.917560041
2022-10-13T07:20:35.466Z,0.941920042
2022-10-13T07:21:37.434Z,0.844480038
2022-10-13T07:22:30.019Z,1.039360046
2022-10-13T07:23:32.244Z,0.88508004
2022-10-13T07:24:24.832Z,0.836360037
2022-10-13T07:26:19.127Z,0.89320004
2022-10-13T07:27:21.903Z,1.112440109
2022-10-13T07:28:13.937Z,0.990640044
2022-10-13T07:29:15.999Z,1.015000105
2022-10-13T07:30:09.346Z,0.876960039
2022-10-13T07:31:08.772Z,1.218000054
2022-10-13T07:32:03.503Z,0.941920042
2022-10-13T07:33:00.658Z,1.250480056
2022-10-13T07:35:30.265Z,1.071840048
2022-10-13T07:35:31.029Z,1.071840048
2022-10-13T07:36:25.940Z,0.771400034
2022-10-13T07:37:21.508Z,1.063719988
2022-10-13T07:38:20.485Z,0.876960039
2022-10-13T07:39:15.649Z,1.136800051
2022-10-13T07:41:11.301Z,0.941920042
2022-10-13T07:42:10.753Z,1.023120046
2022-10-13T07:43:05.621Z,1.185520053
2022-10-13T07:44:06.337Z,1.047480106
2022-10-13T07:46:03.028Z,1.063719988
2022-10-13T07:46:55.543Z,1.144920111
2022-10-13T07:47:57.503Z,0.958160043
2022-10-13T07:48:50.225Z,1.209880114
2022-10-13T07:49:49.474Z,1.526560068
2022-10-13T07:50:44.616Z,1.258599997
2022-10-13T07:51:43.922Z,1.266720057
2022-10-13T07:52:39.048Z,1.250480056
2022-10-13T07:53:38.501Z,1.518440008
2022-10-13T07:54:33.409Z,1.201760054
2022-10-13T07:56:33.122Z,0.966280043
2022-10-13T07:57:33.145Z,1.177400112
2022-10-13T07:58:25.957Z,1.015000105
2022-10-13T07:59:26.122Z,1.006880045
2022-10-13T08:00:21.455Z,0.925680041
2022-10-13T08:01:23.539Z,1.177400112
2022-10-13T08:02:16.146Z,0.982520044
2022-10-13T08:03:18.219Z,0.950040042
2022-10-13T08:04:13.266Z,1.063719988
2022-10-13T08:06:21.798Z,1.063719988
2022-10-13T08:07:21.136Z,1.201760054
2022-10-13T08:08:18.382Z,0.90132004
2022-10-13T08:09:18.738Z,1.096199989
2022-10-13T08:10:15.528Z,0.974400043
2022-10-13T08:11:16.821Z,1.161159992
2022-10-13T08:12:12.529Z,1.055600047
2022-10-13T08:13:14.960Z,0.795760036
2022-10-13T08:14:10.388Z,0.974400043
2022-10-13T08:16:05.940Z,1.006880045
2022-10-13T08:17:03.921Z,1.57528007
2022-10-13T08:18:01.870Z,1.331680059
2022-10-13T08:19:05.652Z,1.201760054
2022-10-13T08:19:58.966Z,1.55904007
2022-10-13T08:21:59.527Z,1.339800119
2022-10-13T08:22:57.125Z,1.591520071
2022-10-13T08:23:52.588Z,1.908200026
2022-10-13T08:24:53.174Z,1.79452014
2022-10-13T08:25:48.820Z,2.03000021
2022-10-13T08:26:51.742Z,1.762040138
2022-10-13T08:27:51.206Z,1.380400062
2022-10-13T08:27:51.642Z,1.380400062
2022-10-13T08:28:57.515Z,1.494080067
2022-10-13T08:29:02.967Z,1.494080067
2022-10-13T08:29:42.018Z,1.485960007
2022-10-13T08:31:44.286Z,1.624000072
2022-10-13T08:32:40.053Z,1.534680128
2022-10-13T08:33:37.926Z,1.79452014
2022-10-13T08:34:40.941Z,1.258599997
2022-10-13T08:36:34.280Z,1.112440109
2022-10-13T08:37:29.615Z,1.169280052
2022-10-13T08:38:30.025Z,1.039360046
2022-10-13T08:39:37.413Z,0.933800042
2022-10-13T08:41:14.502Z,0.267960012
2022-10-13T08:41:55.091Z,1.063719988
2022-10-13T08:42:57.987Z,0.868840039
2022-10-13T08:43:00.597Z,0.868840039
2022-10-13T08:44:33.013Z,0.690200031
2022-10-13T08:44:40.925Z,0.690200031
2022-10-13T08:45:28.362Z,0.730800033
2022-10-13T08:45:46.572Z,0.852600038
2022-10-13T08:46:46.015Z,0.909440041
2022-10-13T08:47:42.515Z,0.868840039
2022-10-13T08:48:42.258Z,0.917560041
2022-10-13T08:49:39.511Z,0.771400034
2022-10-13T08:51:32.601Z,0.917560041
2022-10-13T08:52:31.639Z,0.828240037
2022-10-13T08:53:26.743Z,0.860720038
2022-10-13T08:54:26.704Z,0.576520026
2022-10-13T08:55:21.880Z,0.706440032
2022-10-13T08:56:23.698Z,0.722680032
2022-10-13T08:57:16.213Z,0.730800033
2022-10-13T08:58:16.533Z,0.763280034
2022-10-13T08:59:11.254Z,1.031239986
2022-10-13T09:00:10.691Z,0.68208003
2022-10-13T09:01:05.117Z,1.185520053
2022-10-13T09:02:07.345Z,1.144920111
2022-10-13T09:02:59.696Z,1.526560068
2022-10-13T09:04:00.265Z,1.258599997
2022-10-13T09:04:54.884Z,1.680840015
2022-10-13T09:05:54.415Z,1.57528007
2022-10-13T09:06:49.622Z,1.485960007
2022-10-13T09:07:51.543Z,2.046240091
2022-10-13T09:08:46.404Z,1.916320086
2022-10-13T09:09:41.493Z,2.517199993
2022-10-13T09:10:44.404Z,2.362920046
2022-10-13T09:11:37.810Z,2.23300004
2022-10-13T09:12:39.669Z,2.500960112
2022-10-13T09:13:35.064Z,2.906960011
2022-10-13T09:15:20.539Z,-0.024360001
2022-10-13T09:15:59.860Z,3.174920082
2022-10-13T09:16:58.839Z,3.377920151
2022-10-13T09:17:55.525Z,2.996280193
2022-10-13T09:18:55.220Z,3.077480078
2022-10-13T09:20:55.853Z,2.224880219
2022-10-13T09:21:49.286Z,2.598400116
2022-10-13T09:22:45.727Z,2.565920115
2022-10-13T09:23:45.604Z,2.525320053
2022-10-13T09:24:40.664Z,2.338560104
2022-10-13T09:25:41.028Z,2.565920115
2022-10-13T09:26:36.124Z,2.48472023
2022-10-13T09:27:36.458Z,2.387279987
2022-10-13T09:28:31.909Z,2.046240091
2022-10-13T09:29:34.043Z,2.444120169
2022-10-13T09:30:26.633Z,2.297960043
2022-10-13T09:31:28.918Z,2.103080034
2022-10-13T09:32:21.997Z,2.492840052
2022-10-13T09:33:21.256Z,2.02188015
2022-10-13T09:34:22.039Z,2.582159996
2022-10-13T09:36:12.927Z,2.655240059
2022-10-13T09:37:14.705Z,2.639000177
2022-10-13T09:38:07.247Z,2.525320053
2022-10-13T09:39:05.063Z,3.207400084
2022-10-13T09:40:05.104Z,3.337320089
2022-10-13T09:41:00.470Z,3.296720028
2022-10-13T09:42:03.132Z,3.499720097
2022-10-13T09:42:56.096Z,3.848880291
2022-10-13T09:43:59.034Z,4.0437603
2022-10-13T09:44:53.332Z,4.068120003
2022-10-13T09:46:20.666Z,-0.040600002
2022-10-13T09:46:58.090Z,3.930080175
2022-10-13T09:47:57.185Z,3.507840157
2022-10-13T09:48:57.001Z,3.55656004
2022-10-13T09:49:52.718Z,3.710840225
2022-10-13T09:50:53.433Z,4.230520248
2022-10-13T09:51:49.645Z,4.311720371
2022-10-13T09:52:50.256Z,3.629640102
2022-10-13T09:53:46.357Z,3.629640102
2022-10-13T09:54:46.359Z,3.045000076
2022-10-13T09:55:41.920Z,2.955680132
2022-10-13T09:56:45.411Z,2.92320013
2022-10-13T09:57:38.807Z,2.980040073
2022-10-13T09:58:39.043Z,3.101840019
2022-10-13T09:59:35.281Z,3.239880085
2022-10-13T10:00:35.579Z,2.671480179
2022-10-13T10:01:31.120Z,3.207400084
2022-10-13T10:02:31.043Z,3.223640203
2022-10-13T10:03:32.306Z,3.377920151
2022-10-13T10:04:26.055Z,3.80828023
2022-10-13T10:06:24.091Z,3.524080276
2022-10-13T10:07:23.383Z,3.897600174
2022-10-13T10:08:22.628Z,3.678360224
2022-10-13T10:08:33.213Z,3.678360224
2022-10-13T10:08:33.909Z,3.678360224
2022-10-13T10:09:21.185Z,4.01128006
2022-10-13T10:10:17.333Z,3.873240232
2022-10-13T10:11:18.592Z,3.572800159
2022-10-13T10:12:14.905Z,3.702720165
2022-10-13T10:13:18.149Z,4.03564024
2022-10-13T10:14:12.358Z,4.303600311
2022-10-13T10:16:08.731Z,4.441640377
2022-10-13T10:17:07.209Z,4.238640308
2022-10-13T10:18:10.570Z,4.01940012
2022-10-13T10:19:04.180Z,4.03564024
2022-10-13T10:20:04.970Z,3.605280161
2022-10-13T10:21:01.171Z,3.857000113
2022-10-13T10:22:02.075Z,4.392920017
2022-10-13T10:22:58.164Z,4.417280197
2022-10-13T10:23:57.046Z,4.449760437
2022-10-13T10:24:57.753Z,3.873240232
2022-10-13T10:25:53.739Z,3.727080107
2022-10-13T10:26:56.961Z,3.759560108
2022-10-13T10:27:51.277Z,4.206160069
2022-10-13T10:28:54.084Z,4.238640308
2022-10-13T10:29:48.570Z,3.353560209
2022-10-13T10:31:26.553Z,-0.064960003
2022-10-13T10:32:06.061Z,4.108720303
2022-10-13T10:33:04.363Z,3.824520111
2022-10-13T10:34:04.220Z,3.735200167
2022-10-13T10:35:59.630Z,3.832640171
2022-10-13T10:36:55.164Z,4.06000042
2022-10-13T10:37:55.711Z,3.865120173
2022-10-13T10:38:51.042Z,3.816400051
2022-10-13T10:39:51.337Z,3.954440117
2022-10-13T10:41:47.632Z,4.00316
2022-10-13T10:42:42.921Z,3.710840225
2022-10-13T10:43:43.165Z,4.287360191
2022-10-13T10:44:39.679Z,4.124959946
2022-10-13T10:46:35.013Z,4.02752018
2022-10-13T10:47:35.415Z,4.116840363
2022-10-13T10:48:30.797Z,3.921960115
2022-10-13T10:49:30.260Z,4.02752018
2022-10-13T10:51:24.406Z,4.254879951
2022-10-13T10:52:27.186Z,3.905720234
2022-10-13T10:53:20.101Z,4.547200203
2022-10-13T10:54:23.252Z,4.563440323
2022-10-13T10:56:16.707Z,4.279240131
2022-10-13T10:57:12.282Z,4.124959946
2022-10-13T10:58:15.206Z,3.946320057
2022-10-13T10:59:08.166Z,3.954440117
2022-10-13T11:00:11.395Z,3.767680168
2022-10-13T11:01:04.816Z,4.206160069
2022-10-13T11:02:02.190Z,3.824520111
2022-10-13T11:03:02.469Z,3.913840294
2022-10-13T11:03:57.858Z,3.621520042
2022-10-13T11:05:56.131Z,3.80828023
2022-10-13T11:06:51.784Z,3.751440048
2022-10-13T11:07:55.001Z,3.913840294
2022-10-13T11:08:47.942Z,3.775800228
2022-10-13T11:10:27.244Z,-0.081200004
2022-10-13T11:11:06.587Z,3.207400084
2022-10-13T11:12:04.598Z,3.296720028
2022-10-13T11:13:04.460Z,3.361680031
2022-10-13T11:13:59.664Z,2.777040005
2022-10-13T11:14:59.900Z,2.565920115
2022-10-13T11:15:55.189Z,2.92320013
2022-10-13T11:16:55.137Z,2.833880186
2022-10-13T11:17:50.330Z,2.387279987
2022-10-13T11:18:50.016Z,2.92320013
2022-10-13T11:19:45.417Z,2.825760126
2022-10-13T11:20:44.975Z,2.541560173
2022-10-13T11:21:40.293Z,2.647119999
2022-10-13T11:22:39.785Z,2.492840052
2022-10-13T11:23:34.889Z,2.679600239
2022-10-13T11:24:37.277Z,2.273600101
2022-10-13T11:25:30.052Z,2.427880049
2022-10-13T11:26:29.854Z,2.159920216
2022-10-13T11:27:26.065Z,2.216760159
2022-10-13T11:28:23.628Z,2.23300004
2022-10-13T11:29:25.767Z,2.598400116
2022-10-13T11:30:18.222Z,1.78640008
2022-10-13T11:31:18.208Z,2.403520107
2022-10-13T11:32:13.620Z,2.2411201
2022-10-13T11:33:12.861Z,2.200520039
2022-10-13T11:34:07.988Z,2.338560104
2022-10-13T11:35:10.241Z,2.127439976
2022-10-13T11:36:02.675Z,2.590280056
2022-10-13T11:37:04.935Z,2.135560036
2022-10-13T11:38:06.798Z,2.379160166
2022-10-13T11:38:09.231Z,2.379160166
2022-10-13T11:38:13.987Z,2.379160166
2022-10-13T11:39:00.801Z,2.427880049
2022-10-13T11:40:55.636Z,2.395400047
2022-10-13T11:41:48.257Z,2.45223999
2022-10-13T11:42:47.789Z,2.127439976
2022-10-13T11:43:45.036Z,2.151800156
2022-10-13T11:44:42.356Z,2.135560036
2022-10-13T11:45:39.522Z,1.908200026